Monday, February 19, 2018, 4:55 AM EST
Back to Local

KESN, Easton / Newman Field

Location: Easton, MD, United States Lat: 38.8
Local Time: 4:55 AM EST ( 9:55 GMT) Lon: -76.067
Time Zone: US/Eastern Elev: 72 ft

Show me the last for .
Show Coded

Time T Td Feel RH Dir Speed Gust Alt SLP Vis Weather Sky Remarks
2018-02-19 04:28 38 33 - 83 - Calm - 30.52 - 10 CLR None
2018-02-19 04:07 38 33 34 83 180° 5 - 30.53 - 10 CLR None
2018-02-19 03:48 38 33 35 80 160° 5 - 30.52 - 10 CLR None
2018-02-19 03:27 38 33 32 80 180° 8 - 30.53 - 10 CLR None
2018-02-19 03:07 37 32 34 81 160° 5 - 30.53 - 10 CLR None
2018-02-19 02:48 37 32 34 80 190° 5 - 30.55 - 10 CLR None
2018-02-19 02:26 37 32 31 80 170° 8 - 30.54 - 10 CLR None
2018-02-19 02:07 37 31 32 80 170° 6 - 30.54 - 10 CLR None
2018-02-19 01:48 36 31 32 81 170° 5 - 30.55 - 10 CLR None
2018-02-19 01:28 36 31 32 82 180° 5 - 30.55 - 10 CLR None
2018-02-19 01:06 36 31 32 82 180° 5 - 30.55 - 10 CLR None
2018-02-19 00:48 36 31 32 82 160° 5 - 30.55 - 10 CLR None
2018-02-19 00:28 36 31 32 82 160° 5 - 30.55 - 10 CLR None
2018-02-19 00:07 37 31 32 78 160° 6 - 30.55 - 10 CLR None
2018-02-18 23:48 37 31 32 76 150° 7 - 30.55 - 10 CLR None
2018-02-18 23:28 37 31 34 76 150° 5 - 30.56 - 10 CLR None
2018-02-18 23:08 37 31 33 76 150° 6 - 30.55 - 10 CLR None
2018-02-18 22:48 38 31 34 73 150° 6 - 30.55 - 10 CLR None
2018-02-18 22:26 38 31 34 76 140° 5 - 30.55 - 10 CLR None
2018-02-18 21:47 39 30 36 69 140° 5 - 30.52 - 10 SCT100 None
2018-02-18 20:59 39 30 34 69 140° 7 - 30.52 - 10 SCT100 None
2018-02-18 19:50 39 30 35 69 110° 6 - 30.50 - 10 SCT100 None
2018-02-18 18:50 41 30 38 65 90° 5 - 30.49 - 10 SCT100 None
2018-02-18 17:50 46 30 - 52 - Calm - 30.47 - 10 SCT100 None
2018-02-18 16:50 46 30 45 52 320° 3 - 30.47 - 10 BKN250 None
2018-02-18 15:50 48 30 45 49 330° 7 - 30.46 - 10 SCT080 None
2018-02-18 14:50 48 30 45 49 270° 7 - 30.44 - 10 SCT035 None
2018-02-18 13:50 48 30 44 49 310° 9 - 30.44 - 10 SCT035 None
2018-02-18 12:45 48 32 44 53 360° 9 - 30.45 - 10 SCT048 None
2018-02-18 11:50 46 32 42 56 350° 8 - 30.45 - 10 SCT048 None
2018-02-18 10:50 46 36 43 65 360° 7 - 30.43 - 10 BKN048 None
2018-02-18 09:50 43 36 39 75 320° 7 - 30.40 - 10 SCT048 None
2018-02-18 07:50 37 36 - 93 - Calm - 30.32 - 10 BKN042 None
2018-02-18 06:50 34 32 - 93 - Calm - 30.27 - 5 BR CLR None
2018-02-18 05:45 36 34 - 93 - Calm - 30.24 - 10 OVC120 None
2018-02-18 05:06 37 34 32 91 310° 6 - 30.19 - 10 SCT038 None

Support USWX by starting your Amazon purchase here.